createdAt,value
2023-05-20T00:00:21.314Z,1774.00
2023-05-20T00:01:21.328Z,1759.00
2023-05-20T00:02:21.396Z,1740.00
2023-05-20T00:03:21.423Z,1745.00
2023-05-20T00:04:21.403Z,1759.00
2023-05-20T00:05:21.358Z,1753.00
2023-05-20T00:06:21.350Z,1743.00
2023-05-20T00:07:21.373Z,1746.00
2023-05-20T00:08:21.400Z,1749.00
2023-05-20T00:09:21.417Z,1752.00
2023-05-20T00:10:21.417Z,1753.00
2023-05-20T00:11:21.427Z,1758.00
2023-05-20T00:12:21.439Z,1764.00
2023-05-20T00:13:21.472Z,1777.00
2023-05-20T00:14:21.438Z,1784.00
2023-05-20T00:15:21.483Z,1795.00
2023-05-20T00:16:21.539Z,1797.00
2023-05-20T00:17:21.503Z,1802.00
2023-05-20T00:18:21.509Z,1798.00
2023-05-20T00:19:21.599Z,1804.00
2023-05-20T00:20:21.485Z,1814.00
2023-05-20T00:21:21.476Z,1808.00
2023-05-20T00:22:21.500Z,1820.00
2023-05-20T00:23:21.527Z,1813.00
2023-05-20T00:24:21.545Z,1815.00
2023-05-20T00:25:21.562Z,1817.00
2023-05-20T00:26:21.570Z,1823.00
2023-05-20T00:27:21.598Z,1818.00
2023-05-20T00:28:21.642Z,1809.00
2023-05-20T00:29:21.648Z,1805.00
2023-05-20T00:30:21.672Z,1785.00
2023-05-20T00:31:21.737Z,1780.00
2023-05-20T00:32:21.708Z,1774.00
2023-05-20T00:33:21.695Z,1781.00
2023-05-20T00:34:21.668Z,1799.00
2023-05-20T00:35:21.694Z,1798.00
2023-05-20T00:36:21.704Z,1797.00
2023-05-20T00:37:21.728Z,1794.00
2023-05-20T00:38:21.703Z,1787.00
2023-05-20T00:39:21.704Z,1798.00
2023-05-20T00:40:21.696Z,1803.00
2023-05-20T00:41:21.720Z,1803.00
2023-05-20T00:42:21.694Z,1788.00
2023-05-20T00:43:21.746Z,1776.00
2023-05-20T00:44:21.710Z,1769.00
2023-05-20T00:45:21.727Z,1762.00
2023-05-20T00:46:21.821Z,1764.00
2023-05-20T00:47:21.725Z,1769.00
2023-05-20T00:48:21.744Z,1768.00
2023-05-20T00:49:21.741Z,1767.00
2023-05-20T00:50:21.767Z,1779.00
2023-05-20T00:51:21.708Z,1780.00
2023-05-20T00:52:21.715Z,1780.00
2023-05-20T00:53:21.699Z,1784.00
2023-05-20T00:54:21.724Z,1789.00
2023-05-20T00:55:21.703Z,1800.00
2023-05-20T00:56:21.713Z,1791.00
2023-05-20T00:57:21.710Z,1792.00
2023-05-20T00:58:21.712Z,1791.00
2023-05-20T00:59:21.705Z,1793.00
2023-05-20T01:00:21.697Z,1800.00
2023-05-20T01:01:21.759Z,1794.00
2023-05-20T01:02:21.882Z,1790.00
2023-05-20T01:03:21.848Z,1780.00
2023-05-20T01:04:21.729Z,1775.00
2023-05-20T01:05:21.706Z,1766.00
2023-05-20T01:06:21.673Z,1756.00
2023-05-20T01:07:21.705Z,1751.00
2023-05-20T01:08:21.713Z,1727.00
2023-05-20T01:09:21.715Z,1710.00
2023-05-20T01:10:21.702Z,1708.00
2023-05-20T01:11:21.699Z,1701.00
2023-05-20T01:12:21.729Z,1701.00
2023-05-20T01:13:21.713Z,1720.00
2023-05-20T01:14:21.737Z,1726.00
2023-05-20T01:15:21.734Z,1718.00
2023-05-20T01:16:21.738Z,1724.00
2023-05-20T01:17:21.716Z,1721.00
2023-05-20T01:18:21.761Z,1712.00
2023-05-20T01:19:21.912Z,1718.00
2023-05-20T01:20:21.799Z,1709.00
2023-05-20T01:21:21.801Z,1704.00
2023-05-20T01:22:21.868Z,1707.00
2023-05-20T01:23:21.897Z,1706.00
2023-05-20T01:24:21.969Z,1713.00
2023-05-20T01:25:21.966Z,1716.00
2023-05-20T01:26:21.988Z,1716.00
2023-05-20T01:27:21.971Z,1717.00
2023-05-20T01:28:22.019Z,1711.00
2023-05-20T01:29:22.023Z,1699.00
2023-05-20T01:30:22.134Z,1695.00
2023-05-20T01:31:22.100Z,1693.00
2023-05-20T01:32:22.083Z,1690.00
2023-05-20T01:33:22.073Z,1661.00
2023-05-20T01:34:22.093Z,1663.00
2023-05-20T01:35:22.090Z,1668.00
2023-05-20T01:36:22.125Z,1651.00
2023-05-20T01:37:22.137Z,1654.00
2023-05-20T01:38:22.082Z,1647.00
2023-05-20T01:39:22.123Z,1648.00
2023-05-20T01:40:22.124Z,1638.00
2023-05-20T01:41:22.172Z,1641.00
2023-05-20T01:42:22.224Z,1637.00
2023-05-20T01:43:22.159Z,1638.00
2023-05-20T01:44:22.149Z,1629.00
2023-05-20T01:45:22.269Z,1632.00
2023-05-20T01:46:22.271Z,1627.00
2023-05-20T01:47:22.233Z,1607.00
2023-05-20T01:48:22.224Z,1564.00
2023-05-20T01:49:22.230Z,1536.00
2023-05-20T01:50:22.215Z,1514.00
2023-05-20T01:51:22.221Z,1512.00
2023-05-20T01:52:22.207Z,1524.00
2023-05-20T01:53:22.205Z,1535.00
2023-05-20T01:54:22.246Z,1546.00
2023-05-20T01:55:22.262Z,1550.00
2023-05-20T01:56:22.228Z,1538.00
2023-05-20T01:57:22.251Z,1538.00
2023-05-20T01:58:22.210Z,1547.00
2023-05-20T01:59:22.217Z,1544.00
2023-05-20T02:00:22.236Z,1537.00
2023-05-20T02:01:22.322Z,1519.00
2023-05-20T02:02:22.284Z,1537.00
2023-05-20T02:03:22.288Z,1544.00
2023-05-20T02:04:22.253Z,1555.00
2023-05-20T02:05:22.268Z,1565.00
2023-05-20T02:06:22.253Z,1576.00
2023-05-20T02:07:22.262Z,1569.00
2023-05-20T02:08:22.247Z,1579.00
2023-05-20T02:09:22.251Z,1591.00
2023-05-20T02:10:22.280Z,1597.00
2023-05-20T02:11:22.233Z,1610.00
2023-05-20T02:12:22.256Z,1613.00
2023-05-20T02:13:22.243Z,1618.00
2023-05-20T02:14:22.233Z,1623.00
2023-05-20T02:15:22.239Z,1632.00
2023-05-20T02:16:22.272Z,1609.00
2023-05-20T02:17:22.241Z,1582.00
2023-05-20T02:18:22.234Z,1575.00
2023-05-20T02:19:22.331Z,1585.00
2023-05-20T02:20:22.254Z,1594.00
2023-05-20T02:21:22.260Z,1601.00
2023-05-20T02:22:22.262Z,1601.00
2023-05-20T02:23:22.268Z,1607.00
2023-05-20T02:24:22.244Z,1606.00
2023-05-20T02:25:22.281Z,1611.00
2023-05-20T02:26:22.276Z,1622.00
2023-05-20T02:27:22.262Z,1628.00
2023-05-20T02:28:22.264Z,1633.00
2023-05-20T02:29:22.270Z,1623.00
2023-05-20T02:30:22.294Z,1620.00
2023-05-20T02:31:22.265Z,1619.00
2023-05-20T02:32:22.259Z,1603.00
2023-05-20T02:33:22.338Z,1594.00
2023-05-20T02:34:22.428Z,1599.00
2023-05-20T02:35:22.348Z,1614.00
2023-05-20T02:36:22.323Z,1614.00
2023-05-20T02:37:22.332Z,1616.00
2023-05-20T02:38:22.351Z,1620.00
2023-05-20T02:39:22.358Z,1627.00
2023-05-20T02:40:22.377Z,1629.00
2023-05-20T02:41:22.390Z,1634.00
2023-05-20T02:42:22.400Z,1631.00
2023-05-20T02:43:22.375Z,1634.00
2023-05-20T02:44:22.393Z,1639.00
2023-05-20T02:45:22.388Z,1629.00
2023-05-20T02:46:22.510Z,1622.00
2023-05-20T02:47:22.479Z,1616.00
2023-05-20T02:48:22.446Z,1613.00
2023-05-20T02:49:22.446Z,1610.00
2023-05-20T02:50:22.429Z,1607.00
2023-05-20T02:51:22.447Z,1618.00
2023-05-20T02:52:22.463Z,1610.00
2023-05-20T02:53:22.475Z,1610.00
2023-05-20T02:54:22.451Z,1609.00
2023-05-20T02:55:22.443Z,1599.00
2023-05-20T02:56:22.474Z,1599.00
2023-05-20T02:57:22.505Z,1597.00
2023-05-20T02:58:22.477Z,1606.00
2023-05-20T02:59:22.491Z,1599.00
2023-05-20T03:00:22.514Z,1602.00
2023-05-20T03:01:22.516Z,1609.00
2023-05-20T03:02:22.510Z,1616.00
2023-05-20T03:03:22.476Z,1635.00
2023-05-20T03:04:22.500Z,1634.00
2023-05-20T03:05:22.477Z,1650.00
2023-05-20T03:06:22.500Z,1647.00
2023-05-20T03:07:22.510Z,1656.00
2023-05-20T03:08:22.463Z,1666.00
2023-05-20T03:09:22.493Z,1666.00
2023-05-20T03:10:22.523Z,1666.00
2023-05-20T03:11:22.492Z,1670.00
2023-05-20T03:12:22.504Z,1673.00
2023-05-20T03:13:22.507Z,1677.00
2023-05-20T03:14:22.469Z,1673.00
2023-05-20T03:15:22.460Z,1673.00
2023-05-20T03:16:22.547Z,1682.00
2023-05-20T03:17:22.500Z,1681.00
2023-05-20T03:18:22.471Z,1685.00
2023-05-20T03:19:22.506Z,1676.00
2023-05-20T03:20:22.492Z,1676.00
2023-05-20T03:21:22.471Z,1656.00
2023-05-20T03:22:22.472Z,1646.00
2023-05-20T03:23:22.469Z,1640.00
2023-05-20T03:24:22.486Z,1645.00
2023-05-20T03:25:22.515Z,1654.00
2023-05-20T03:26:22.496Z,1652.00
2023-05-20T03:27:22.593Z,1658.00
2023-05-20T03:28:22.526Z,1662.00
2023-05-20T03:29:22.562Z,1667.00
2023-05-20T03:30:22.549Z,1673.00
2023-05-20T03:31:22.616Z,1678.00
2023-05-20T03:32:22.564Z,1688.00
2023-05-20T03:33:22.603Z,1686.00
2023-05-20T03:34:22.574Z,1686.00
2023-05-20T03:35:22.602Z,1694.00
2023-05-20T03:36:22.607Z,1689.00
2023-05-20T03:37:22.648Z,1689.00
2023-05-20T03:38:22.652Z,1688.00
2023-05-20T03:39:22.628Z,1678.00
2023-05-20T03:40:22.671Z,1679.00
2023-05-20T03:41:22.668Z,1691.00
2023-05-20T03:42:22.651Z,1673.00
2023-05-20T03:43:22.646Z,1668.00
2023-05-20T03:44:22.661Z,1679.00
2023-05-20T03:45:22.690Z,1688.00
2023-05-20T03:46:22.765Z,1685.00
2023-05-20T03:47:22.712Z,1689.00
2023-05-20T03:48:22.716Z,1680.00
2023-05-20T03:49:22.709Z,1678.00
2023-05-20T03:50:22.739Z,1686.00
2023-05-20T03:51:22.753Z,1687.00
2023-05-20T03:52:22.761Z,1687.00
2023-05-20T03:53:22.745Z,1691.00
2023-05-20T03:54:22.728Z,1689.00
2023-05-20T03:55:22.752Z,1687.00
2023-05-20T03:56:22.750Z,1695.00
2023-05-20T03:57:22.755Z,1685.00
2023-05-20T03:58:22.753Z,1684.00
2023-05-20T03:59:22.762Z,1683.00
2023-05-20T04:00:22.759Z,1678.00
2023-05-20T04:01:22.777Z,1680.00
2023-05-20T04:02:22.899Z,1674.00
2023-05-20T04:03:22.887Z,1675.00
2023-05-20T04:04:22.956Z,1671.00
2023-05-20T04:05:22.756Z,1672.00
2023-05-20T04:06:22.772Z,1680.00
2023-05-20T04:07:22.780Z,1682.00
2023-05-20T04:08:22.781Z,1677.00
2023-05-20T04:09:22.770Z,1668.00
2023-05-20T04:10:22.796Z,1671.00
2023-05-20T04:11:22.786Z,1658.00
2023-05-20T04:12:22.794Z,1663.00
2023-05-20T04:13:22.753Z,1667.00
2023-05-20T04:14:22.790Z,1657.00
2023-05-20T04:15:22.791Z,1660.00
2023-05-20T04:16:22.789Z,1656.00
2023-05-20T04:17:22.794Z,1649.00
2023-05-20T04:18:22.808Z,1652.00
2023-05-20T04:19:22.829Z,1649.00
2023-05-20T04:20:22.770Z,1649.00
2023-05-20T04:21:22.770Z,1648.00
2023-05-20T04:22:22.763Z,1642.00
2023-05-20T04:23:22.776Z,1646.00
2023-05-20T04:24:22.786Z,1634.00
2023-05-20T04:25:22.769Z,1636.00
2023-05-20T04:26:22.775Z,1632.00
2023-05-20T04:27:22.745Z,1630.00
2023-05-20T04:28:22.768Z,1635.00
2023-05-20T04:29:22.758Z,1629.00
2023-05-20T04:30:22.762Z,1630.00
2023-05-20T04:31:22.841Z,1637.00
2023-05-20T04:32:22.747Z,1628.00
2023-05-20T04:33:22.773Z,1629.00
2023-05-20T04:34:22.749Z,1633.00
2023-05-20T04:35:22.748Z,1625.00
2023-05-20T04:36:22.753Z,1617.00
2023-05-20T04:37:22.737Z,1619.00
2023-05-20T04:38:22.748Z,1620.00
2023-05-20T04:39:22.759Z,1627.00
2023-05-20T04:40:22.776Z,1618.00
2023-05-20T04:41:22.741Z,1619.00
2023-05-20T04:42:22.746Z,1616.00
2023-05-20T04:43:22.749Z,1618.00
2023-05-20T04:44:22.730Z,1615.00
2023-05-20T04:45:22.754Z,1612.00
2023-05-20T04:46:22.815Z,1614.00
2023-05-20T04:47:22.729Z,1605.00
2023-05-20T04:48:22.745Z,1611.00
2023-05-20T04:49:22.744Z,1608.00
2023-05-20T04:50:22.784Z,1614.00
2023-05-20T04:51:22.781Z,1617.00
2023-05-20T04:52:22.779Z,1612.00
2023-05-20T04:53:22.822Z,1618.00
2023-05-20T04:54:22.836Z,1625.00
2023-05-20T04:55:22.845Z,1626.00
2023-05-20T04:56:22.843Z,1626.00
2023-05-20T04:57:22.857Z,1634.00
2023-05-20T04:58:22.861Z,1636.00
2023-05-20T04:59:22.902Z,1642.00
2023-05-20T05:00:22.899Z,1639.00
2023-05-20T05:01:22.908Z,1635.00
2023-05-20T05:02:22.878Z,1635.00
2023-05-20T05:03:22.908Z,1630.00
2023-05-20T05:04:22.898Z,1637.00
2023-05-20T05:05:22.884Z,1634.00
2023-05-20T05:06:22.931Z,1631.00
2023-05-20T05:07:22.942Z,1627.00
2023-05-20T05:08:22.951Z,1623.00
2023-05-20T05:09:22.949Z,1629.00
2023-05-20T05:10:23.018Z,1627.00
2023-05-20T05:11:22.961Z,1626.00
2023-05-20T05:12:22.976Z,1625.00
2023-05-20T05:13:23.003Z,1623.00
2023-05-20T05:14:23.015Z,1625.00
2023-05-20T05:15:23.039Z,1613.00
2023-05-20T05:16:23.071Z,1620.00
2023-05-20T05:17:23.022Z,1623.00
2023-05-20T05:18:23.040Z,1615.00
2023-05-20T05:19:23.236Z,1616.00
2023-05-20T05:20:23.063Z,1608.00
2023-05-20T05:21:23.056Z,1613.00
2023-05-20T05:22:23.069Z,1604.00
2023-05-20T05:23:23.089Z,1603.00
2023-05-20T05:24:23.110Z,1599.00
2023-05-20T05:25:23.068Z,1610.00
2023-05-20T05:26:23.085Z,1608.00
2023-05-20T05:27:23.163Z,1604.00
2023-05-20T05:28:23.097Z,1609.00
2023-05-20T05:29:23.178Z,1614.00
2023-05-20T05:30:23.164Z,1615.00
2023-05-20T05:31:23.267Z,1608.00
2023-05-20T05:32:23.350Z,1603.00
2023-05-20T05:33:23.262Z,1609.00
2023-05-20T05:34:23.247Z,1604.00
2023-05-20T05:35:23.248Z,1603.00
2023-05-20T05:36:23.296Z,1590.00
2023-05-20T05:37:23.310Z,1591.00
2023-05-20T05:38:23.366Z,1590.00
2023-05-20T05:39:23.370Z,1586.00
2023-05-20T05:40:23.373Z,1586.00
2023-05-20T05:41:23.424Z,1578.00
2023-05-20T05:42:23.422Z,1582.00
2023-05-20T05:43:23.406Z,1583.00
2023-05-20T05:44:23.488Z,1568.00
2023-05-20T05:45:23.468Z,1583.00
2023-05-20T05:46:23.558Z,1587.00
2023-05-20T05:47:23.568Z,1581.00
2023-05-20T05:48:23.559Z,1580.00
2023-05-20T05:49:23.580Z,1587.00
2023-05-20T05:50:23.582Z,1577.00
2023-05-20T05:51:23.623Z,1574.00
2023-05-20T05:52:23.655Z,1561.00
2023-05-20T05:53:23.709Z,1545.00
2023-05-20T05:54:23.708Z,1509.00
2023-05-20T05:55:23.708Z,1485.00
2023-05-20T05:56:23.723Z,1483.00
2023-05-20T05:57:23.781Z,1466.00
2023-05-20T05:58:23.785Z,1469.00
2023-05-20T05:59:23.777Z,1465.00
2023-05-20T06:00:23.776Z,1443.00
2023-05-20T06:01:23.828Z,1435.00
2023-05-20T06:02:23.837Z,1411.00
2023-05-20T06:03:23.848Z,1399.00
2023-05-20T06:04:23.851Z,1379.00
2023-05-20T06:05:23.788Z,1354.00
2023-05-20T06:06:23.790Z,1303.00
2023-05-20T06:07:23.768Z,1296.00
2023-05-20T06:08:23.779Z,1294.00
2023-05-20T06:09:23.780Z,1269.00
2023-05-20T06:10:23.798Z,1279.00
2023-05-20T06:11:23.820Z,1295.00
2023-05-20T06:12:23.802Z,1310.00
2023-05-20T06:13:23.801Z,1319.00
2023-05-20T06:14:23.789Z,1338.00
2023-05-20T06:15:23.801Z,1335.00
2023-05-20T06:16:23.822Z,1312.00
2023-05-20T06:17:23.817Z,1292.00
2023-05-20T06:18:23.763Z,1290.00
2023-05-20T06:19:23.844Z,1298.00
2023-05-20T06:20:23.800Z,1308.00
2023-05-20T06:21:23.794Z,1314.00
2023-05-20T06:22:23.807Z,1307.00
2023-05-20T06:23:23.806Z,1279.00
2023-05-20T06:24:24.656Z,1262.00
2023-05-20T06:25:23.793Z,1257.00
2023-05-20T06:26:23.782Z,1241.00
2023-05-20T06:27:23.794Z,1248.00
2023-05-20T06:28:23.773Z,1240.00
2023-05-20T06:29:23.786Z,1239.00
2023-05-20T06:30:23.803Z,1259.00
2023-05-20T06:31:23.844Z,1259.00
2023-05-20T06:32:23.886Z,1249.00
2023-05-20T06:33:23.786Z,1236.00
2023-05-20T06:34:23.827Z,1248.00
2023-05-20T06:35:23.833Z,1251.00
2023-05-20T06:36:23.842Z,1243.00
2023-05-20T06:37:23.810Z,1233.00
2023-05-20T06:38:23.822Z,1246.00
2023-05-20T06:39:23.852Z,1258.00
2023-05-20T06:40:23.834Z,1249.00
2023-05-20T06:41:23.851Z,1245.00
2023-05-20T06:42:23.833Z,1247.00
2023-05-20T06:43:23.847Z,1251.00
2023-05-20T06:44:23.846Z,1241.00
2023-05-20T06:45:23.836Z,1224.00
2023-05-20T06:46:23.978Z,1215.00
2023-05-20T06:47:23.879Z,1204.00
2023-05-20T06:48:23.820Z,1177.00
2023-05-20T06:49:23.834Z,1140.00
2023-05-20T06:50:23.831Z,1132.00
2023-05-20T06:51:23.842Z,1136.00
2023-05-20T06:52:23.792Z,1152.00
2023-05-20T06:53:23.820Z,1162.00
2023-05-20T06:54:23.824Z,1176.00
2023-05-20T06:55:23.842Z,1165.00
2023-05-20T06:56:23.789Z,1131.00
2023-05-20T06:57:23.811Z,1136.00
2023-05-20T06:58:23.831Z,1128.00
2023-05-20T06:59:23.799Z,1136.00
2023-05-20T07:00:23.835Z,1136.00
2023-05-20T07:01:23.861Z,1147.00
2023-05-20T07:02:23.876Z,1116.00
2023-05-20T07:03:23.850Z,1083.00
2023-05-20T07:04:23.804Z,1065.00
2023-05-20T07:05:23.825Z,1060.00
2023-05-20T07:06:23.826Z,1052.00
2023-05-20T07:07:23.825Z,1066.00
2023-05-20T07:08:23.828Z,1071.00
2023-05-20T07:09:23.892Z,1032.00
2023-05-20T07:10:23.823Z,1004.00
2023-05-20T07:11:23.849Z,982.00
2023-05-20T07:12:23.811Z,977.00
2023-05-20T07:13:23.819Z,969.00
2023-05-20T07:14:23.806Z,923.00
2023-05-20T07:15:23.795Z,899.00
2023-05-20T07:16:23.872Z,893.00
2023-05-20T07:17:23.887Z,899.00
2023-05-20T07:18:23.861Z,881.00
2023-05-20T07:19:23.930Z,859.00
2023-05-20T07:20:23.856Z,795.00
2023-05-20T07:21:23.833Z,784.00
2023-05-20T07:22:23.819Z,820.00
2023-05-20T07:23:23.827Z,845.00
2023-05-20T07:24:23.858Z,862.00
2023-05-20T07:25:23.847Z,893.00
2023-05-20T07:26:23.816Z,868.00
2023-05-20T07:27:23.845Z,837.00
2023-05-20T07:28:23.832Z,813.00
2023-05-20T07:29:23.823Z,793.00
2023-05-20T07:30:23.833Z,766.00
2023-05-20T07:31:23.819Z,738.00
2023-05-20T07:32:23.817Z,739.00
2023-05-20T07:33:23.785Z,779.00
2023-05-20T07:34:23.779Z,807.00
2023-05-20T07:35:23.798Z,826.00
2023-05-20T07:36:23.792Z,845.00
2023-05-20T07:37:23.812Z,862.00
2023-05-20T07:38:23.824Z,866.00
2023-05-20T07:39:23.817Z,813.00
2023-05-20T07:40:23.841Z,800.00
2023-05-20T07:41:23.821Z,818.00
2023-05-20T07:42:23.810Z,832.00
2023-05-20T07:43:24.788Z,880.00
2023-05-20T07:44:23.840Z,914.00
2023-05-20T07:45:23.814Z,933.00
2023-05-20T07:46:23.861Z,968.00
2023-05-20T07:47:23.884Z,1025.00
2023-05-20T07:48:23.920Z,1068.00
2023-05-20T07:49:23.932Z,1092.00
2023-05-20T07:50:23.945Z,1037.00
2023-05-20T07:51:24.023Z,992.00
2023-05-20T07:52:24.016Z,1020.00
2023-05-20T07:53:24.072Z,1031.00
2023-05-20T07:54:24.101Z,1035.00
2023-05-20T07:55:24.160Z,1056.00
2023-05-20T07:56:24.204Z,1067.00
2023-05-20T07:57:24.292Z,1072.00
2023-05-20T07:58:24.364Z,1072.00
2023-05-20T07:59:24.396Z,1078.00
2023-05-20T08:00:24.569Z,1117.00
2023-05-20T08:01:24.501Z,1114.00
2023-05-20T08:02:24.612Z,1112.00
2023-05-20T08:03:24.650Z,1130.00
2023-05-20T08:04:24.720Z,1141.00
2023-05-20T08:05:24.749Z,1163.00
2023-05-20T08:06:25.459Z,1184.00
2023-05-20T08:07:24.864Z,1196.00
2023-05-20T08:08:24.972Z,1195.00
2023-05-20T08:09:25.023Z,1195.00
2023-05-20T08:10:25.075Z,1192.00
2023-05-20T08:11:25.134Z,1188.00
2023-05-20T08:12:25.167Z,1153.00
2023-05-20T08:13:25.257Z,1157.00
2023-05-20T08:14:25.316Z,1155.00
2023-05-20T08:15:25.389Z,1170.00
2023-05-20T08:16:25.463Z,1161.00
2023-05-20T08:17:25.535Z,1160.00
2023-05-20T08:18:25.584Z,1179.00
2023-05-20T08:19:25.671Z,1175.00
2023-05-20T08:20:25.678Z,1189.00
2023-05-20T08:21:25.763Z,1215.00
2023-05-20T08:22:25.804Z,1206.00
2023-05-20T08:23:25.858Z,1188.00
2023-05-20T08:24:25.884Z,1189.00
2023-05-20T08:25:25.986Z,1187.00
2023-05-20T08:26:26.049Z,1198.00
2023-05-20T08:27:26.088Z,1201.00
2023-05-20T08:28:26.158Z,1169.00
2023-05-20T08:29:26.203Z,1172.00
2023-05-20T08:30:26.276Z,1176.00
2023-05-20T08:31:26.371Z,1176.00
2023-05-20T08:32:26.384Z,1165.00
2023-05-20T08:33:26.445Z,1169.00
2023-05-20T08:34:26.475Z,1166.00
2023-05-20T08:35:26.513Z,1160.00
2023-05-20T08:36:26.572Z,1186.00
2023-05-20T08:37:26.632Z,1205.00
2023-05-20T08:38:26.707Z,1206.00
2023-05-20T08:39:26.777Z,1189.00
2023-05-20T08:40:26.805Z,1173.00
2023-05-20T08:41:26.903Z,1194.00
2023-05-20T08:42:26.912Z,1184.00
2023-05-20T08:43:26.959Z,1149.00
2023-05-20T08:44:27.028Z,1151.00
2023-05-20T08:45:27.076Z,1165.00
2023-05-20T08:46:27.213Z,1158.00
2023-05-20T08:47:27.260Z,1154.00
2023-05-20T08:48:27.223Z,1163.00
2023-05-20T08:49:27.269Z,1170.00
2023-05-20T08:50:27.302Z,1197.00
2023-05-20T08:51:27.399Z,1187.00
2023-05-20T08:52:27.439Z,1198.00
2023-05-20T08:53:27.498Z,1217.00
2023-05-20T08:54:27.554Z,1206.00
2023-05-20T08:55:27.618Z,1193.00
2023-05-20T08:56:29.994Z,1170.00
2023-05-20T08:57:27.641Z,1150.00
2023-05-20T08:58:27.683Z,1127.00
2023-05-20T08:59:27.721Z,1129.00
2023-05-20T09:00:27.622Z,1130.00
2023-05-20T09:01:27.708Z,1152.00
2023-05-20T09:02:27.652Z,1220.00
2023-05-20T09:03:27.616Z,1230.00
2023-05-20T09:04:27.666Z,1210.00
2023-05-20T09:05:27.626Z,1203.00
2023-05-20T09:06:27.614Z,1179.00
2023-05-20T09:07:27.609Z,1176.00
2023-05-20T09:08:27.580Z,1169.00
2023-05-20T09:09:27.576Z,1162.00
2023-05-20T09:10:27.577Z,1181.00
2023-05-20T09:11:27.542Z,1183.00
2023-05-20T09:12:27.568Z,1108.00
2023-05-20T09:13:27.552Z,1141.00
2023-05-20T09:14:27.560Z,1097.00
2023-05-20T09:15:27.532Z,1116.00
2023-05-20T09:16:27.581Z,1114.00
2023-05-20T09:17:27.566Z,1116.00
2023-05-20T09:18:27.505Z,1136.00
2023-05-20T09:19:27.564Z,1098.00
2023-05-20T09:20:27.496Z,1080.00
2023-05-20T09:21:27.482Z,1082.00
2023-05-20T09:22:27.516Z,1143.00
2023-05-20T09:23:27.489Z,1120.00
2023-05-20T09:24:27.483Z,1132.00
2023-05-20T09:25:27.488Z,1137.00
2023-05-20T09:26:27.560Z,1101.00
2023-05-20T09:27:27.462Z,1094.00
2023-05-20T09:28:27.475Z,1124.00
2023-05-20T09:29:27.454Z,1133.00
2023-05-20T09:30:27.435Z,1184.00
2023-05-20T09:31:27.512Z,1145.00
2023-05-20T09:32:27.441Z,1102.00
2023-05-20T09:33:27.414Z,1065.00
2023-05-20T09:34:27.437Z,1053.00
2023-05-20T09:35:27.412Z,1047.00
2023-05-20T09:36:27.414Z,1099.00
2023-05-20T09:37:27.407Z,1053.00
2023-05-20T09:38:27.380Z,1042.00
2023-05-20T09:39:27.398Z,1023.00
2023-05-20T09:40:27.441Z,1029.00
2023-05-20T09:41:27.448Z,1003.00
2023-05-20T09:42:27.525Z,953.00
2023-05-20T09:43:27.512Z,963.00
2023-05-20T09:44:27.592Z,931.00
2023-05-20T09:45:27.641Z,919.00
2023-05-20T09:46:27.799Z,896.00
2023-05-20T09:47:27.691Z,931.00
2023-05-20T09:48:27.735Z,795.00
2023-05-20T09:49:27.779Z,877.00
2023-05-20T09:50:27.853Z,971.00
2023-05-20T09:51:27.887Z,983.00
2023-05-20T09:52:27.906Z,1013.00
2023-05-20T09:53:27.941Z,993.00
2023-05-20T09:54:27.997Z,980.00
2023-05-20T09:55:28.010Z,981.00
2023-05-20T09:56:28.054Z,824.00
2023-05-20T09:57:28.093Z,747.00
2023-05-20T09:58:28.129Z,818.00
2023-05-20T09:59:28.185Z,893.00
2023-05-20T10:00:28.222Z,686.00
2023-05-20T10:01:28.250Z,728.00
2023-05-20T10:02:28.363Z,785.00
2023-05-20T10:03:28.716Z,783.00
2023-05-20T10:04:28.331Z,809.00
2023-05-20T10:05:28.413Z,882.00
2023-05-20T10:06:28.441Z,957.00
2023-05-20T10:07:41.372Z,949.00
2023-05-20T10:08:29.543Z,949.00
2023-05-20T10:09:28.456Z,949.00
2023-05-20T10:10:28.521Z,926.00
2023-05-20T10:11:28.458Z,872.00
2023-05-20T10:12:28.448Z,898.00
2023-05-20T10:13:28.477Z,907.00
2023-05-20T10:14:28.433Z,879.00
2023-05-20T10:15:28.463Z,833.00
2023-05-20T10:16:28.556Z,828.00
2023-05-20T10:17:28.509Z,860.00
2023-05-20T10:18:28.426Z,813.00
2023-05-20T10:19:28.872Z,892.00
2023-05-20T10:20:28.551Z,905.00
2023-05-20T10:21:28.563Z,882.00
2023-05-20T10:22:28.615Z,805.00
2023-05-20T10:23:28.710Z,876.00
2023-05-20T10:24:28.752Z,940.00
2023-05-20T10:25:28.786Z,991.00
2023-05-20T10:26:28.842Z,847.00
2023-05-20T10:27:28.900Z,833.00
2023-05-20T10:28:28.932Z,873.00
2023-05-20T10:29:28.991Z,876.00
2023-05-20T10:30:29.035Z,808.00
2023-05-20T10:31:29.097Z,590.00
2023-05-20T10:32:29.281Z,518.00
2023-05-20T10:33:29.283Z,495.00
2023-05-20T10:34:29.272Z,497.00
2023-05-20T10:35:29.335Z,400.00
2023-05-20T10:36:29.391Z,400.00
2023-05-20T10:37:29.469Z,400.00
2023-05-20T10:38:29.492Z,426.00
2023-05-20T10:39:29.561Z,515.00
2023-05-20T10:40:29.608Z,540.00
2023-05-20T10:41:29.633Z,500.00
2023-05-20T10:42:29.693Z,492.00
2023-05-20T10:43:29.758Z,531.00
2023-05-20T10:44:29.801Z,540.00
2023-05-20T10:45:29.835Z,435.00
2023-05-20T10:46:37.963Z,400.00
2023-05-20T10:47:30.920Z,400.00
2023-05-20T10:48:30.044Z,407.00
2023-05-20T10:49:29.893Z,428.00
2023-05-20T10:50:29.868Z,454.00
2023-05-20T10:51:29.865Z,520.00
2023-05-20T10:52:29.859Z,511.00
2023-05-20T10:53:33.906Z,500.00
2023-05-20T10:54:29.828Z,501.00
2023-05-20T10:55:29.811Z,509.00
2023-05-20T10:56:29.796Z,554.00
2023-05-20T10:57:29.814Z,610.00
2023-05-20T10:58:29.789Z,906.00
2023-05-20T10:59:29.796Z,1113.00
2023-05-20T11:00:29.781Z,1194.00
2023-05-20T11:01:29.820Z,1221.00
2023-05-20T11:02:29.852Z,1271.00
2023-05-20T11:03:29.909Z,1227.00
2023-05-20T11:04:29.767Z,1012.00
2023-05-20T11:05:29.757Z,982.00
2023-05-20T11:06:29.781Z,1059.00
2023-05-20T11:07:29.752Z,1072.00
2023-05-20T11:08:29.806Z,1162.00
2023-05-20T11:09:29.770Z,1220.00
2023-05-20T11:10:29.779Z,1297.00
2023-05-20T11:11:29.836Z,1351.00
2023-05-20T11:12:29.870Z,1302.00
2023-05-20T11:13:29.928Z,1311.00
2023-05-20T11:14:29.998Z,1351.00
2023-05-20T11:15:30.039Z,1348.00
2023-05-20T11:16:30.073Z,1354.00
2023-05-20T11:17:30.170Z,1330.00
2023-05-20T11:18:30.224Z,1280.00
2023-05-20T11:19:30.211Z,1364.00
2023-05-20T11:20:30.223Z,1415.00
2023-05-20T11:21:30.285Z,1459.00
2023-05-20T11:22:30.335Z,1396.00
2023-05-20T11:23:30.363Z,1349.00
2023-05-20T11:24:30.380Z,1296.00
2023-05-20T11:25:30.458Z,1309.00
2023-05-20T11:26:30.466Z,1329.00
2023-05-20T11:27:30.518Z,1318.00
2023-05-20T11:28:30.541Z,1226.00
2023-05-20T11:29:30.590Z,774.00
2023-05-20T11:30:30.645Z,894.00
2023-05-20T11:31:30.716Z,1022.00
2023-05-20T11:32:30.785Z,1065.00
2023-05-20T11:33:30.744Z,1161.00
2023-05-20T11:34:31.936Z,1227.00
2023-05-20T11:35:30.832Z,1280.00
2023-05-20T11:36:30.861Z,1225.00
2023-05-20T11:37:30.915Z,1116.00
2023-05-20T11:38:30.921Z,1122.00
2023-05-20T11:39:31.020Z,1035.00
2023-05-20T11:40:35.865Z,1125.00
2023-05-20T11:41:32.003Z,1127.00
2023-05-20T11:42:31.856Z,1137.00
2023-05-20T11:43:30.985Z,1150.00
2023-05-20T11:44:30.960Z,1166.00
2023-05-20T11:45:30.984Z,1261.00
2023-05-20T11:46:31.053Z,1319.00
2023-05-20T11:47:30.988Z,1333.00
2023-05-20T11:48:30.961Z,1344.00
2023-05-20T11:49:31.127Z,1308.00
2023-05-20T11:50:30.924Z,1320.00
2023-05-20T11:51:30.925Z,1360.00
2023-05-20T11:52:30.947Z,1364.00
2023-05-20T11:53:30.917Z,1366.00
2023-05-20T11:54:30.911Z,1384.00
2023-05-20T11:55:30.944Z,1397.00
2023-05-20T11:56:30.990Z,1361.00
2023-05-20T11:57:31.010Z,1310.00
2023-05-20T11:58:31.095Z,1188.00
2023-05-20T11:59:31.091Z,1125.00
2023-05-20T12:00:36.216Z,1213.00
2023-05-20T12:01:32.124Z,1216.00
2023-05-20T12:02:31.228Z,1231.00
2023-05-20T12:03:31.205Z,1263.00
2023-05-20T12:04:31.133Z,1290.00
2023-05-20T12:05:31.076Z,1322.00
2023-05-20T12:06:31.073Z,1299.00
2023-05-20T12:07:31.085Z,1323.00
2023-05-20T12:08:31.922Z,1237.00
2023-05-20T12:09:31.059Z,1177.00